Terminal Aerodrome Forecast
Issued by NWS North Platte, NE

Home | Current Version | Previous Version | Graphics & Text | Print | Product List | Glossary On
Versions: 1 2 3 4 5 6 7 8 9 10 11 12 13 14 15 16 17 18 19
000
FTUS43 KLBF 221731 RRA
TAFVTN
TAF
KVTN 221731Z 2218/2318 18008KT 1 1/2SM -SN OVC025
     FM222200 15005KT P6SM OVC025
     FM230300 VRB03KT P6SM OVC035
     FM231200 29006KT P6SM BKN008 OVC012
     FM231700 32005KT P6SM BKN020=

USA.gov is the U.S. government's official web portal to all federal, state and local government web resources and services.